createdAt,value
2017-08-16T00:02:25.915Z,77.80
2017-08-16T00:04:55.815Z,77.60
2017-08-16T00:07:24.898Z,78.20
2017-08-16T00:09:54.316Z,77.90
2017-08-16T00:12:22.793Z,78.30
2017-08-16T00:14:51.166Z,78.40
2017-08-16T00:17:19.944Z,78.90
2017-08-16T00:19:47.833Z,78.30
2017-08-16T00:22:16.442Z,78.20
2017-08-16T00:24:45.206Z,78.90
2017-08-16T00:27:14.378Z,78.20
2017-08-16T00:29:43.545Z,78.50
2017-08-16T00:32:12.773Z,79.30
2017-08-16T00:34:41.254Z,78.90
2017-08-16T00:37:09.239Z,78.70
2017-08-16T00:39:37.084Z,78.50
2017-08-16T00:42:04.789Z,78.80
2017-08-16T00:44:32.936Z,78.80
2017-08-16T00:47:01.393Z,79.20
2017-08-16T00:49:29.957Z,79.00
2017-08-16T00:51:57.947Z,79.00
2017-08-16T00:54:26.837Z,79.30
2017-08-16T00:56:54.357Z,79.10
2017-08-16T00:59:24.616Z,78.70
2017-08-16T01:01:54.326Z,78.70
2017-08-16T01:04:24.068Z,79.00
2017-08-16T01:06:52.920Z,79.00
2017-08-16T01:09:22.260Z,78.40
2017-08-16T01:11:50.204Z,78.60
2017-08-16T01:14:20.702Z,78.10
2017-08-16T01:16:49.115Z,78.00
2017-08-16T01:19:17.825Z,78.40
2017-08-16T01:21:46.461Z,79.40
2017-08-16T01:24:15.028Z,78.50
2017-08-16T01:26:42.673Z,78.10
2017-08-16T01:29:11.500Z,78.10
2017-08-16T01:31:40.388Z,78.80
2017-08-16T01:34:10.003Z,78.70
2017-08-16T01:36:37.872Z,78.90
2017-08-16T01:39:05.629Z,79.50
2017-08-16T01:41:34.107Z,80.00
2017-08-16T01:44:02.908Z,80.20
2017-08-16T01:46:32.489Z,80.40
2017-08-16T01:49:00.997Z,80.40
2017-08-16T01:51:29.002Z,80.60
2017-08-16T01:53:56.786Z,80.50
2017-08-16T01:56:24.689Z,80.60
2017-08-16T01:58:53.989Z,80.40
2017-08-16T02:01:21.733Z,80.40
2017-08-16T02:03:50.245Z,80.60
2017-08-16T02:06:17.944Z,80.00
2017-08-16T02:08:46.246Z,79.70
2017-08-16T02:11:14.936Z,79.70
2017-08-16T02:13:44.794Z,80.00
2017-08-16T02:16:14.860Z,79.80
2017-08-16T02:18:43.276Z,79.80
2017-08-16T02:21:12.742Z,80.00
2017-08-16T02:23:43.782Z,80.60
2017-08-16T02:26:12.730Z,79.90
2017-08-16T02:28:42.275Z,80.00
2017-08-16T02:31:10.861Z,80.20
2017-08-16T02:33:39.121Z,80.10
2017-08-16T02:36:07.412Z,79.90
2017-08-16T02:38:35.888Z,79.10
2017-08-16T02:41:04.881Z,78.60
2017-08-16T02:43:33.314Z,79.50
2017-08-16T02:46:02.497Z,79.90
2017-08-16T02:48:30.434Z,79.90
2017-08-16T02:50:57.917Z,80.00
2017-08-16T02:53:26.484Z,80.30
2017-08-16T02:55:58.283Z,80.40
2017-08-16T02:58:28.229Z,80.00
2017-08-16T03:00:56.682Z,80.00
2017-08-16T03:03:25.952Z,80.00
2017-08-16T03:05:55.235Z,80.60
2017-08-16T03:08:22.736Z,80.10
2017-08-16T03:10:51.044Z,80.60
2017-08-16T03:13:21.036Z,80.70
2017-08-16T03:15:49.480Z,80.50
2017-08-16T03:18:18.488Z,80.80
2017-08-16T03:20:49.470Z,80.70
2017-08-16T03:23:18.053Z,80.70
2017-08-16T03:25:45.821Z,80.70
2017-08-16T03:28:15.213Z,81.00
2017-08-16T03:30:43.602Z,81.00
2017-08-16T03:33:13.301Z,81.20
2017-08-16T03:35:42.106Z,80.10
2017-08-16T03:38:11.509Z,80.30
2017-08-16T03:40:40.178Z,80.40
2017-08-16T03:43:08.338Z,80.50
2017-08-16T03:45:37.984Z,80.50
2017-08-16T03:48:05.480Z,80.60
2017-08-16T03:50:34.502Z,80.50
2017-08-16T03:53:03.039Z,80.60
2017-08-16T03:55:31.785Z,80.80
2017-08-16T03:58:00.149Z,80.80
2017-08-16T04:00:28.017Z,81.70
2017-08-16T04:02:57.549Z,80.90
2017-08-16T04:05:26.505Z,81.10
2017-08-16T04:07:54.898Z,80.90
2017-08-16T04:10:26.332Z,80.50
2017-08-16T04:12:55.577Z,80.50
2017-08-16T04:15:24.018Z,80.50
2017-08-16T04:17:53.047Z,80.30
2017-08-16T04:20:22.575Z,79.80
2017-08-16T04:22:53.045Z,79.00
2017-08-16T04:25:21.986Z,79.30
2017-08-16T04:27:53.087Z,79.40
2017-08-16T04:30:22.877Z,79.40
2017-08-16T04:32:52.381Z,79.50
2017-08-16T04:35:19.912Z,80.00
2017-08-16T04:37:49.464Z,79.40
2017-08-16T04:40:18.656Z,79.40
2017-08-16T04:42:47.046Z,79.10
2017-08-16T04:45:15.425Z,79.10
2017-08-16T04:47:45.616Z,79.00
2017-08-16T04:50:14.816Z,79.30
2017-08-16T04:52:43.322Z,78.60
2017-08-16T04:55:11.322Z,78.80
2017-08-16T04:57:41.169Z,78.70
2017-08-16T05:00:10.047Z,78.70
2017-08-16T05:02:41.309Z,78.80
2017-08-16T05:05:09.683Z,79.20
2017-08-16T05:07:37.649Z,79.20
2017-08-16T05:10:05.185Z,79.00
2017-08-16T05:12:35.045Z,78.80
2017-08-16T05:15:03.446Z,78.70
2017-08-16T05:17:32.184Z,79.00
2017-08-16T05:20:00.958Z,78.60
2017-08-16T05:22:28.735Z,78.50
2017-08-16T05:24:57.218Z,78.30
2017-08-16T05:27:26.144Z,78.50
2017-08-16T05:29:53.974Z,78.90
2017-08-16T05:32:23.472Z,79.50
2017-08-16T05:34:51.780Z,79.40
2017-08-16T05:37:21.922Z,79.20
2017-08-16T05:39:51.576Z,78.90
2017-08-16T05:42:20.066Z,78.40
2017-08-16T05:44:47.926Z,78.20
2017-08-16T05:47:15.709Z,78.60
2017-08-16T05:49:43.651Z,78.60
2017-08-16T05:52:13.466Z,78.00
2017-08-16T05:54:42.972Z,77.80
2017-08-16T05:57:11.655Z,77.20
2017-08-16T05:59:39.545Z,77.60
2017-08-16T06:02:07.408Z,77.40
2017-08-16T06:04:35.656Z,76.70
2017-08-16T06:07:03.623Z,75.90
2017-08-16T06:09:32.325Z,75.60
2017-08-16T06:12:00.088Z,76.20
2017-08-16T06:14:28.961Z,76.40
2017-08-16T06:16:58.156Z,76.00
2017-08-16T06:19:27.475Z,75.70
2017-08-16T06:21:55.552Z,76.00
2017-08-16T06:24:24.315Z,76.00
2017-08-16T06:26:52.557Z,75.80
2017-08-16T06:29:20.859Z,75.40
2017-08-16T06:31:49.965Z,75.40
2017-08-16T06:34:20.613Z,75.20
2017-08-16T06:39:07.821Z,73.10
2017-08-16T06:41:35.891Z,75.50
2017-08-16T06:44:04.484Z,77.00
2017-08-16T06:46:31.956Z,78.40
2017-08-16T06:49:00.471Z,79.70
2017-08-16T06:51:29.217Z,80.30
2017-08-16T06:53:56.893Z,80.30
2017-08-16T06:56:24.720Z,80.00
2017-08-16T06:58:52.645Z,80.00
2017-08-16T07:01:21.270Z,80.70
2017-08-16T07:03:49.136Z,80.60
2017-08-16T07:06:16.727Z,80.50
2017-08-16T07:08:44.561Z,80.90
2017-08-16T07:11:12.135Z,81.40
2017-08-16T07:13:39.836Z,81.40
2017-08-16T07:16:08.567Z,80.70
2017-08-16T07:18:36.432Z,80.70
2017-08-16T07:21:04.089Z,80.90
2017-08-16T07:23:32.931Z,81.10
2017-08-16T07:26:00.745Z,81.40
2017-08-16T07:28:28.369Z,81.20
2017-08-16T07:30:57.192Z,80.40
2017-08-16T07:33:25.532Z,80.30
2017-08-16T07:35:54.042Z,79.40
2017-08-16T07:38:21.889Z,79.30
2017-08-16T07:40:51.319Z,79.00
2017-08-16T07:43:19.749Z,79.40
2017-08-16T07:45:48.390Z,79.40
2017-08-16T07:48:16.070Z,78.90
2017-08-16T07:50:44.600Z,79.70
2017-08-16T07:53:12.104Z,79.40
2017-08-16T07:55:39.961Z,78.30
2017-08-16T07:58:07.695Z,78.30
2017-08-16T08:00:35.919Z,78.20
2017-08-16T08:03:03.743Z,77.50
2017-08-16T08:05:31.522Z,78.80
2017-08-16T08:07:59.852Z,78.50
2017-08-16T08:10:27.610Z,78.70
2017-08-16T08:12:55.965Z,79.00
2017-08-16T08:15:23.854Z,79.00
2017-08-16T08:17:51.521Z,79.70
2017-08-16T08:20:20.030Z,77.50
2017-08-16T08:22:47.508Z,77.10
2017-08-16T08:25:15.282Z,76.40
2017-08-16T08:27:43.687Z,76.20
2017-08-16T08:30:12.161Z,75.60
2017-08-16T08:32:40.790Z,75.00
2017-08-16T08:35:10.092Z,74.90
2017-08-16T08:37:38.772Z,74.70
2017-08-16T08:40:08.317Z,73.70
2017-08-16T08:42:36.120Z,73.00
2017-08-16T08:45:04.612Z,73.00
2017-08-16T08:47:33.206Z,73.10
2017-08-16T08:50:00.893Z,72.90
2017-08-16T08:52:28.354Z,73.30
2017-08-16T08:54:56.392Z,71.80
2017-08-16T08:57:24.796Z,74.30
2017-08-16T08:59:52.493Z,70.80
2017-08-16T09:02:20.739Z,71.00
2017-08-16T09:04:48.414Z,71.00
2017-08-16T09:07:16.230Z,70.80
2017-08-16T09:09:44.103Z,70.90
2017-08-16T09:12:12.234Z,70.20
2017-08-16T09:14:41.610Z,70.40
2017-08-16T09:17:09.287Z,70.40
2017-08-16T09:19:40.577Z,68.90
2017-08-16T09:22:08.441Z,68.90
2017-08-16T09:24:36.015Z,67.20
2017-08-16T09:27:03.497Z,66.50
2017-08-16T09:29:30.994Z,67.90
2017-08-16T09:31:58.443Z,67.00
2017-08-16T09:34:26.140Z,68.70
2017-08-16T09:36:54.513Z,67.30
2017-08-16T09:39:22.037Z,68.10
2017-08-16T09:41:51.672Z,67.20
2017-08-16T09:44:19.160Z,67.10
2017-08-16T09:46:47.337Z,66.50
2017-08-16T09:49:14.830Z,67.70
2017-08-16T09:51:43.485Z,66.10
2017-08-16T09:54:11.515Z,66.10
2017-08-16T09:56:39.184Z,67.10
2017-08-16T09:59:07.039Z,66.60
2017-08-16T10:01:35.722Z,66.40
2017-08-16T10:04:03.662Z,66.30
2017-08-16T10:06:32.230Z,67.30
2017-08-16T10:08:59.675Z,67.30
2017-08-16T10:11:27.197Z,65.60
2017-08-16T10:13:54.888Z,64.60
2017-08-16T10:16:23.892Z,67.80
2017-08-16T10:18:52.784Z,66.50
2017-08-16T10:21:22.388Z,66.40
2017-08-16T10:23:51.270Z,63.50
2017-08-16T10:26:20.196Z,63.50
2017-08-16T10:28:48.508Z,63.10
2017-08-16T10:31:16.357Z,61.30
2017-08-16T10:33:43.829Z,59.80
2017-08-16T10:36:11.952Z,58.10
2017-08-16T10:38:40.310Z,57.70
2017-08-16T10:41:09.030Z,56.60
2017-08-16T10:43:36.584Z,56.50
2017-08-16T10:46:04.467Z,56.10
2017-08-16T10:48:31.959Z,55.90
2017-08-16T10:50:59.440Z,52.80
2017-08-16T10:53:28.494Z,52.60
2017-08-16T10:55:56.371Z,52.50
2017-08-16T10:58:23.857Z,51.70
2017-08-16T11:00:52.101Z,49.40
2017-08-16T11:03:19.744Z,49.30
2017-08-16T11:05:48.807Z,49.50
2017-08-16T11:08:17.647Z,47.90
2017-08-16T11:10:45.222Z,47.80
2017-08-16T11:16:26.382Z,47.30
2017-08-16T11:18:53.837Z,47.10
2017-08-16T11:21:21.825Z,45.00
2017-08-16T11:23:50.294Z,43.90
2017-08-16T11:26:17.998Z,43.30
2017-08-16T11:28:46.534Z,43.20
2017-08-16T11:31:14.258Z,43.20
2017-08-16T11:33:42.241Z,39.30
2017-08-16T11:36:10.325Z,41.30
2017-08-16T11:38:38.629Z,39.00
2017-08-16T11:41:06.131Z,41.60
2017-08-16T11:43:33.621Z,41.80
2017-08-16T11:46:01.124Z,42.50
2017-08-16T11:48:29.590Z,43.50
2017-08-16T11:50:57.836Z,44.60
2017-08-16T11:53:25.348Z,44.00
2017-08-16T11:55:53.600Z,45.60
2017-08-16T11:58:21.083Z,45.60
2017-08-16T12:00:49.147Z,47.90
2017-08-16T12:03:16.600Z,48.40
2017-08-16T12:05:44.957Z,48.50
2017-08-16T12:08:13.041Z,48.30
2017-08-16T12:10:41.978Z,49.90
2017-08-16T12:13:10.957Z,52.60
2017-08-16T12:15:38.613Z,51.20
2017-08-16T12:18:06.890Z,48.30
2017-08-16T12:20:35.274Z,48.30
2017-08-16T12:23:06.194Z,51.10
2017-08-16T12:25:34.275Z,51.30
2017-08-16T12:28:04.504Z,47.40
2017-08-16T12:30:32.328Z,49.50
2017-08-16T12:33:03.508Z,48.90
2017-08-16T12:35:31.722Z,49.90
2017-08-16T12:38:00.570Z,49.60
2017-08-16T12:40:31.425Z,49.90
2017-08-16T12:42:59.705Z,47.20
2017-08-16T12:45:28.156Z,47.60
2017-08-16T12:47:57.182Z,48.00
2017-08-16T12:50:25.982Z,47.80
2017-08-16T12:52:55.092Z,47.20
2017-08-16T12:55:24.865Z,47.30
2017-08-16T12:57:54.142Z,47.20
2017-08-16T13:00:26.107Z,47.10
2017-08-16T13:02:54.786Z,47.50
2017-08-16T13:05:23.982Z,45.60
2017-08-16T13:07:53.386Z,46.90
2017-08-16T13:10:21.876Z,47.60
2017-08-16T13:12:50.651Z,48.30
2017-08-16T13:15:19.861Z,48.40
2017-08-16T13:17:48.637Z,48.30
2017-08-16T13:20:17.426Z,48.60
2017-08-16T13:22:47.024Z,48.00
2017-08-16T13:25:17.673Z,48.40
2017-08-16T13:27:46.240Z,49.10
2017-08-16T13:30:17.644Z,49.00
2017-08-16T13:32:48.013Z,48.20
2017-08-16T13:35:20.745Z,48.10
2017-08-16T13:37:50.516Z,48.80
2017-08-16T13:40:19.596Z,49.00
2017-08-16T13:42:48.586Z,48.60
2017-08-16T13:45:17.702Z,48.00
2017-08-16T13:47:46.944Z,49.40
2017-08-16T13:50:15.333Z,49.50
2017-08-16T13:52:44.359Z,48.30
2017-08-16T13:55:13.137Z,48.80
2017-08-16T13:57:44.518Z,49.70
2017-08-16T14:00:12.251Z,51.00
2017-08-16T14:02:42.726Z,49.70
2017-08-16T14:05:12.879Z,47.00
2017-08-16T14:07:42.785Z,46.90
2017-08-16T14:10:12.229Z,49.20
2017-08-16T14:12:43.171Z,48.60
2017-08-16T14:15:13.570Z,50.30
2017-08-16T14:17:41.861Z,50.00
2017-08-16T14:20:09.894Z,50.20
2017-08-16T14:22:39.048Z,50.50
2017-08-16T14:25:10.303Z,50.10
2017-08-16T14:27:39.040Z,50.60
2017-08-16T14:30:07.622Z,50.60
2017-08-16T14:32:35.393Z,50.40
2017-08-16T14:35:05.538Z,50.80
2017-08-16T14:37:34.700Z,50.90
2017-08-16T14:40:02.959Z,51.00
2017-08-16T14:42:31.967Z,51.00
2017-08-16T14:44:59.834Z,51.00
2017-08-16T14:47:27.892Z,51.20
2017-08-16T14:49:57.028Z,51.30
2017-08-16T14:52:25.580Z,51.20
2017-08-16T14:54:55.084Z,51.40
2017-08-16T14:57:23.900Z,51.40
2017-08-16T14:59:52.720Z,51.50
2017-08-16T15:02:21.912Z,51.90
2017-08-16T15:04:51.482Z,51.20
2017-08-16T15:07:22.138Z,51.10
2017-08-16T15:09:52.180Z,51.40
2017-08-16T15:12:21.713Z,51.40
2017-08-16T15:14:52.343Z,51.40
2017-08-16T15:17:20.979Z,52.30
2017-08-16T15:19:50.938Z,51.50
2017-08-16T15:22:20.448Z,51.80
2017-08-16T15:24:47.925Z,51.50
2017-08-16T15:27:17.123Z,51.10
2017-08-16T15:29:45.763Z,51.10
2017-08-16T15:32:14.826Z,51.80
2017-08-16T15:34:42.748Z,51.50
2017-08-16T15:37:10.606Z,52.20
2017-08-16T15:39:41.923Z,51.20
2017-08-16T15:42:10.856Z,51.60
2017-08-16T15:44:38.461Z,51.80
2017-08-16T15:47:08.034Z,51.60
2017-08-16T15:49:38.103Z,51.50
2017-08-16T15:52:07.151Z,51.50
2017-08-16T15:54:35.924Z,51.90
2017-08-16T15:57:03.666Z,51.80
2017-08-16T15:59:32.760Z,51.50
2017-08-16T16:02:03.907Z,51.60
2017-08-16T16:04:32.315Z,51.70
2017-08-16T16:07:00.896Z,52.00
2017-08-16T16:09:30.528Z,52.20
2017-08-16T16:12:01.330Z,52.00
2017-08-16T16:14:29.324Z,52.00
2017-08-16T16:17:00.748Z,52.00
2017-08-16T16:19:29.205Z,52.00
2017-08-16T16:21:59.171Z,51.50
2017-08-16T16:24:29.489Z,52.30
2017-08-16T16:26:58.149Z,52.80
2017-08-16T16:29:27.623Z,52.30
2017-08-16T16:31:54.979Z,51.90
2017-08-16T16:34:25.785Z,51.80
2017-08-16T16:36:53.736Z,51.70
2017-08-16T16:39:22.496Z,52.70
2017-08-16T16:41:49.830Z,52.60
2017-08-16T16:44:17.789Z,52.60
2017-08-16T16:46:44.896Z,53.00
2017-08-16T16:49:14.030Z,53.10
2017-08-16T16:51:44.463Z,53.00
2017-08-16T16:54:12.525Z,53.10
2017-08-16T16:56:44.865Z,53.10
2017-08-16T16:59:12.970Z,53.60
2017-08-16T17:01:41.006Z,53.60
2017-08-16T17:04:08.410Z,53.90
2017-08-16T17:06:37.214Z,53.70
2017-08-16T17:09:07.253Z,53.80
2017-08-16T17:11:35.794Z,53.80
2017-08-16T17:14:03.881Z,53.40
2017-08-16T17:16:32.457Z,54.00
2017-08-16T17:19:00.454Z,54.00
2017-08-16T17:21:31.341Z,53.60
2017-08-16T17:23:59.228Z,53.60
2017-08-16T17:26:29.420Z,54.60
2017-08-16T17:28:58.416Z,54.30
2017-08-16T17:31:27.936Z,54.50
2017-08-16T17:33:59.132Z,55.20
2017-08-16T17:36:27.540Z,54.60
2017-08-16T17:38:56.954Z,55.00
2017-08-16T17:41:24.760Z,55.00
2017-08-16T17:43:55.844Z,55.40
2017-08-16T17:46:25.211Z,55.20
2017-08-16T17:48:53.133Z,55.60
2017-08-16T17:51:22.307Z,55.60
2017-08-16T17:53:50.971Z,55.40
2017-08-16T17:56:19.617Z,55.70
2017-08-16T17:58:48.462Z,56.20
2017-08-16T18:01:18.339Z,56.60
2017-08-16T18:03:46.804Z,57.20
2017-08-16T18:06:15.340Z,57.70
2017-08-16T18:08:44.339Z,57.40
2017-08-16T18:11:13.049Z,57.60
2017-08-16T18:13:40.981Z,57.30
2017-08-16T18:16:08.748Z,57.60
2017-08-16T18:18:37.541Z,57.60
2017-08-16T18:21:05.449Z,57.60
2017-08-16T18:23:36.397Z,57.60
2017-08-16T18:26:05.025Z,57.80
2017-08-16T18:28:35.564Z,57.80
2017-08-16T18:31:05.255Z,58.30
2017-08-16T18:33:33.120Z,58.70
2017-08-16T18:36:01.822Z,59.20
2017-08-16T18:38:29.774Z,59.60
2017-08-16T18:40:56.836Z,59.80
2017-08-16T18:43:24.431Z,59.60
2017-08-16T18:45:53.343Z,61.00
2017-08-16T18:48:21.796Z,60.30
2017-08-16T18:50:49.366Z,60.40
2017-08-16T18:53:18.003Z,61.90
2017-08-16T18:55:46.091Z,61.40
2017-08-16T18:58:14.437Z,61.30
2017-08-16T19:00:43.261Z,61.70
2017-08-16T19:03:12.944Z,62.10
2017-08-16T19:05:40.504Z,62.20
2017-08-16T19:08:09.290Z,62.40
2017-08-16T19:10:37.187Z,62.10
2017-08-16T19:13:05.576Z,62.40
2017-08-16T19:15:35.331Z,63.40
2017-08-16T19:18:04.855Z,63.30
2017-08-16T19:20:34.974Z,60.30
2017-08-16T19:23:02.735Z,58.60
2017-08-16T19:25:30.205Z,61.70
2017-08-16T19:27:58.337Z,60.90
2017-08-16T19:35:45.321Z,60.30
2017-08-16T19:38:13.272Z,61.60
2017-08-16T19:40:42.067Z,59.80
2017-08-16T19:43:10.010Z,61.60
2017-08-16T19:45:38.016Z,62.00
2017-08-16T19:48:07.276Z,62.20
2017-08-16T19:50:35.141Z,62.90
2017-08-16T19:53:03.957Z,63.20
2017-08-16T19:55:33.738Z,62.90
2017-08-16T19:58:02.424Z,62.90
2017-08-16T20:00:31.786Z,63.20
2017-08-16T20:03:44.865Z,62.00
2017-08-16T20:06:12.724Z,62.00
2017-08-16T20:08:41.811Z,62.50
2017-08-16T20:11:11.540Z,63.50
2017-08-16T20:13:39.382Z,63.90
2017-08-16T20:16:07.606Z,64.40
2017-08-16T20:18:35.447Z,65.00
2017-08-16T20:21:03.283Z,65.50
2017-08-16T20:23:30.922Z,66.30
2017-08-16T20:25:59.744Z,69.20
2017-08-16T20:28:27.265Z,69.00
2017-08-16T20:30:55.277Z,70.00
2017-08-16T20:33:23.499Z,70.60
2017-08-16T20:35:52.323Z,71.40
2017-08-16T20:38:20.295Z,71.40
2017-08-16T20:40:48.017Z,71.80
2017-08-16T20:43:16.533Z,68.70
2017-08-16T20:45:44.296Z,68.60
2017-08-16T20:48:11.754Z,68.70
2017-08-16T20:50:40.548Z,68.90
2017-08-16T20:53:08.717Z,69.50
2017-08-16T20:55:38.930Z,69.70
2017-08-16T20:58:07.575Z,69.20
2017-08-16T21:00:35.490Z,69.70
2017-08-16T21:03:47.847Z,70.70
2017-08-16T21:06:44.428Z,69.90
2017-08-16T21:09:11.905Z,70.90
2017-08-16T21:11:39.563Z,71.10
2017-08-16T21:14:08.984Z,71.90
2017-08-16T21:16:36.433Z,72.00
2017-08-16T21:19:04.133Z,73.10
2017-08-16T21:21:32.085Z,73.00
2017-08-16T21:24:00.050Z,73.40
2017-08-16T21:26:28.381Z,73.80
2017-08-16T21:28:56.157Z,74.30
2017-08-16T21:31:24.261Z,74.30
2017-08-16T21:33:52.593Z,74.50
2017-08-16T21:36:20.246Z,74.80
2017-08-16T21:38:48.281Z,75.30
2017-08-16T21:41:16.520Z,75.30
2017-08-16T21:43:44.265Z,75.20
2017-08-16T21:46:12.162Z,75.50
2017-08-16T21:48:40.004Z,75.80
2017-08-16T21:51:07.861Z,75.60
2017-08-16T21:53:35.364Z,76.20
2017-08-16T21:56:04.724Z,76.40
2017-08-16T21:58:32.638Z,75.70
2017-08-16T22:01:00.934Z,75.90
2017-08-16T22:03:28.729Z,76.70
2017-08-16T22:05:57.397Z,76.40
2017-08-16T22:08:25.886Z,76.50
2017-08-16T22:10:54.425Z,76.90
2017-08-16T22:13:22.910Z,77.40
2017-08-16T22:15:51.961Z,77.30
2017-08-16T22:18:19.431Z,78.10
2017-08-16T22:20:54.904Z,78.20
2017-08-16T22:23:22.924Z,78.00
2017-08-16T22:25:50.376Z,77.90
2017-08-16T22:28:18.129Z,78.50
2017-08-16T22:30:45.638Z,78.70
2017-08-16T22:33:13.907Z,78.80
2017-08-16T22:35:42.742Z,79.00
2017-08-16T22:38:10.310Z,78.90
2017-08-16T22:40:37.872Z,79.20
2017-08-16T22:43:06.549Z,79.30
2017-08-16T22:45:35.205Z,79.50
2017-08-16T22:48:03.721Z,79.60
2017-08-16T22:50:31.180Z,79.90
2017-08-16T22:52:59.865Z,79.90
2017-08-16T22:55:27.558Z,79.90
2017-08-16T22:57:56.104Z,80.50
2017-08-16T23:00:23.566Z,80.40
2017-08-16T23:02:52.636Z,81.10
2017-08-16T23:05:20.817Z,81.40
2017-08-16T23:07:48.589Z,81.70
2017-08-16T23:10:16.100Z,81.70
2017-08-16T23:12:44.930Z,81.20
2017-08-16T23:15:19.784Z,81.00
2017-08-16T23:17:48.434Z,80.80
2017-08-16T23:20:15.904Z,81.20
2017-08-16T23:22:43.654Z,81.20
2017-08-16T23:25:11.218Z,81.10
2017-08-16T23:27:49.085Z,81.50
2017-08-16T23:30:17.444Z,81.50
2017-08-16T23:32:45.878Z,81.90
2017-08-16T23:35:16.876Z,81.90
2017-08-16T23:37:45.106Z,82.30
2017-08-16T23:40:16.784Z,82.30
2017-08-16T23:42:46.005Z,82.40
2017-08-16T23:45:13.474Z,82.30
2017-08-16T23:47:42.789Z,82.60
2017-08-16T23:50:10.232Z,82.90
2017-08-16T23:55:14.966Z,82.40
2017-08-16T23:57:43.176Z,82.60
